Time;durP1;ratioP1;P1;durP2;ratioP2;P2;SDS_P1;SDS_P2;PMS_P1;PMS_P2;Temp;Humidity;BMP_temperature;BMP_pressure;BME280_temperature;BME280_humidity;BME280_pressure;Samples;Min_cycle;Max_cycle;Signal;HPM_P1;HPM_P2
2021/01/13 00:00:28;;;;;;;;;;;6.40;99.90;;;;;;5118557;28;19990;-49
2021/01/13 00:02:53;;;;;;;;;;;6.40;99.90;;;;;;5119242;28;19914;-49
2021/01/13 00:05:19;;;;;;;;;;;6.50;99.90;;;;;;5119320;28;20375;-49
2021/01/13 00:07:44;;;;;;;;;;;6.50;99.90;;;;;;5120322;28;19915;-48
2021/01/13 00:10:11;;;;;;;;;;;6.50;99.90;;;;;;5120101;28;20230;-48
2021/01/13 00:12:36;;;;;;;;;;;6.50;99.90;;;;;;5119227;28;19961;-48
2021/01/13 00:15:03;;;;;;;;;;;6.40;99.90;;;;;;5118565;28;19916;-50
2021/01/13 00:17:28;;;;;;;;;;;6.40;99.90;;;;;;5119073;28;19918;-50
2021/01/13 00:19:54;;;;;;;;;;;6.30;99.90;;;;;;5115006;28;19911;-49
2021/01/13 00:22:20;;;;;;;;;;;6.40;99.90;;;;;;5099446;28;19908;-49
2021/01/13 00:24:46;;;;;;;;;;;6.50;99.90;;;;;;5099360;28;19908;-49
2021/01/13 00:27:11;;;;;;;;;;;6.50;99.90;;;;;;5098257;28;19916;-49
2021/01/13 00:29:37;;;;;;;;;;;6.50;99.90;;;;;;5098298;28;19915;-49
2021/01/13 00:32:04;;;;;;;;;;;6.50;99.90;;;;;;5098406;28;19908;-49
2021/01/13 00:34:30;;;;;;;;;;;6.50;99.90;;;;;;5098116;28;19919;-49
2021/01/13 00:36:55;;;;;;;;;;;6.50;99.90;;;;;;5099006;28;19998;-49
2021/01/13 00:39:21;;;;;;;;;;;6.50;99.90;;;;;;5098775;28;20382;-50
2021/01/13 00:41:47;;;;;;;;;;;6.40;99.90;;;;;;5104531;28;20333;-50
2021/01/13 00:44:14;;;;;;;;;;;6.50;99.90;;;;;;5118306;28;19919;-50
2021/01/13 00:46:44;;;;;;;;;;;6.40;99.90;;;;;;5118292;28;19904;-50
2021/01/13 00:49:10;;;;;;;;;;;6.40;99.90;;;;;;5099850;28;20234;-49
2021/01/13 00:51:36;;;;;;;;;;;6.30;99.90;;;;;;5119021;28;19911;-49
2021/01/13 00:54:03;;;;;;;;;;;6.30;99.90;;;;;;5118969;28;19912;-49
2021/01/13 00:56:29;;;;;;;;;;;6.40;99.90;;;;;;5118237;28;19908;-49
2021/01/13 00:58:55;;;;;;;;;;;6.40;99.90;;;;;;5099675;28;20291;-49
2021/01/13 01:01:22;;;;;;;;;;;6.40;99.90;;;;;;5118372;28;19947;-49
2021/01/13 01:03:48;;;;;;;;;;;6.40;99.90;;;;;;5117793;28;19904;-49
2021/01/13 01:06:13;;;;;;;;;;;6.40;99.90;;;;;;5118181;28;19908;-50
2021/01/13 01:08:39;;;;;;;;;;;6.40;99.90;;;;;;5083642;28;19916;-50
2021/01/13 01:11:05;;;;;;;;;;;6.40;99.90;;;;;;5117900;28;19908;-49
2021/01/13 01:13:30;;;;;;;;;;;6.40;99.90;;;;;;5118042;28;19907;-49
2021/01/13 01:15:56;;;;;;;;;;;6.40;99.90;;;;;;5117893;28;19911;-49
2021/01/13 01:18:21;;;;;;;;;;;6.40;99.90;;;;;;5099447;28;20310;-50
2021/01/13 01:20:47;;;;;;;;;;;6.40;99.90;;;;;;5106230;28;19912;-49
2021/01/13 01:23:12;;;;;;;;;;;6.40;99.90;;;;;;5098286;28;19915;-49
2021/01/13 01:25:38;;;;;;;;;;;6.40;99.90;;;;;;5097127;28;19908;-49
2021/01/13 01:28:04;;;;;;;;;;;6.40;99.90;;;;;;5097496;28;20265;-48
2021/01/13 01:30:30;;;;;;;;;;;6.50;99.90;;;;;;5101008;28;19941;-49
2021/01/13 01:32:56;;;;;;;;;;;6.50;99.90;;;;;;5116528;28;19907;-48
2021/01/13 01:35:22;;;;;;;;;;;6.40;99.90;;;;;;5123523;27;19911;-49
2021/01/13 01:37:47;;;;;;;;;;;6.40;99.90;;;;;;5097635;28;19918;-49
2021/01/13 01:40:14;;;;;;;;;;;6.40;99.90;;;;;;5078619;28;19933;-49
2021/01/13 01:42:44;;;;;;;;;;;6.40;99.90;;;;;;5096783;28;19908;-49
2021/01/13 01:45:10;;;;;;;;;;;6.40;99.90;;;;;;5096833;28;19944;-49
2021/01/13 01:47:38;;;;;;;;;;;6.50;99.90;;;;;;5078480;28;19919;-49
2021/01/13 01:50:04;;;;;;;;;;;6.50;99.90;;;;;;5117359;28;19912;-48
2021/01/13 01:52:30;;;;;;;;;;;6.50;99.90;;;;;;5117169;28;19956;-50
2021/01/13 01:54:57;;;;;;;;;;;6.50;99.90;;;;;;5116868;28;20313;-49
2021/01/13 01:57:23;;;;;;;;;;;6.50;99.90;;;;;;5116863;28;19908;-50
2021/01/13 01:59:55;;;;;;;;;;;6.50;99.90;;;;;;5116627;28;20320;-50
2021/01/13 02:02:22;;;;;;;;;;;6.50;99.90;;;;;;5116822;28;20403;-50
2021/01/13 02:04:48;;;;;;;;;;;6.50;99.90;;;;;;5117367;28;19908;-51
2021/01/13 02:07:30;;;;;;;;;;;6.50;99.90;;;;;;5116628;28;20404;-50
2021/01/13 02:09:56;;;;;;;;;;;6.50;99.90;;;;;;5117014;28;19908;-50
2021/01/13 02:12:29;;;;;;;;;;;6.50;99.90;;;;;;5116589;28;19916;-50
2021/01/13 02:14:55;;;;;;;;;;;6.60;99.90;;;;;;5116768;28;20019;-51
2021/01/13 02:17:27;;;;;;;;;;;6.60;99.90;;;;;;5116659;28;20365;-50
2021/01/13 02:19:55;;;;;;;;;;;6.70;99.90;;;;;;5116864;28;19908;-52
2021/01/13 02:22:25;;;;;;;;;;;6.70;99.90;;;;;;5098918;28;19910;-49
2021/01/13 02:25:09;;;;;;;;;;;6.60;99.90;;;;;;5110915;28;19904;-50
2021/01/13 02:27:54;;;;;;;;;;;6.60;99.90;;;;;;5096598;28;20328;-50
2021/01/13 02:30:22;;;;;;;;;;;6.60;99.90;;;;;;5096245;28;19973;-50
2021/01/13 02:32:48;;;;;;;;;;;6.60;99.90;;;;;;5096563;28;19907;-51
2021/01/13 02:35:17;;;;;;;;;;;6.60;99.90;;;;;;5077849;28;19908;-50
2021/01/13 02:37:44;;;;;;;;;;;6.60;99.90;;;;;;5097345;28;19939;-50
2021/01/13 02:40:28;;;;;;;;;;;6.70;99.90;;;;;;5096841;28;19916;-50
2021/01/13 02:43:09;;;;;;;;;;;6.70;99.90;;;;;;5096245;28;20291;-51
2021/01/13 02:45:36;;;;;;;;;;;6.70;99.90;;;;;;5077114;28;19961;-50
2021/01/13 02:48:05;;;;;;;;;;;6.70;99.90;;;;;;5095466;28;19918;-50
2021/01/13 02:50:32;;;;;;;;;;;6.80;99.90;;;;;;5096100;28;19908;-52
2021/01/13 02:53:09;;;;;;;;;;;6.80;99.90;;;;;;5096854;28;19904;-50
2021/01/13 02:55:55;;;;;;;;;;;6.80;99.90;;;;;;5096593;28;19930;-51
2021/01/13 02:58:24;;;;;;;;;;;6.80;99.90;;;;;;5085032;28;19986;-50
2021/01/13 03:00:50;;;;;;;;;;;6.60;99.90;;;;;;5096126;28;19944;-51
2021/01/13 03:03:17;;;;;;;;;;;6.70;99.90;;;;;;5095988;28;19904;-50
2021/01/13 03:05:45;;;;;;;;;;;6.70;99.90;;;;;;5078967;28;19912;-51
2021/01/13 03:08:11;;;;;;;;;;;6.70;99.90;;;;;;5100828;28;19912;-51
2021/01/13 03:10:37;;;;;;;;;;;6.70;99.90;;;;;;5099952;28;19999;-51
2021/01/13 03:13:05;;;;;;;;;;;6.70;99.90;;;;;;5100057;28;19912;-49
2021/01/13 03:15:31;;;;;;;;;;;6.70;99.90;;;;;;5099491;28;20310;-50
2021/01/13 03:18:15;;;;;;;;;;;6.70;99.90;;;;;;5081566;28;19934;-50
2021/01/13 03:20:50;;;;;;;;;;;6.70;99.90;;;;;;5099868;28;20287;-51
2021/01/13 03:23:21;;;;;;;;;;;6.70;99.90;;;;;;5101239;28;19947;-50
2021/01/13 03:25:56;;;;;;;;;;;6.70;99.90;;;;;;5096051;28;20323;-51
2021/01/13 03:28:23;;;;;;;;;;;6.80;99.90;;;;;;5120220;28;19936;-52
2021/01/13 03:30:50;;;;;;;;;;;6.90;99.90;;;;;;5120141;28;19911;-50
2021/01/13 03:33:35;;;;;;;;;;;6.90;99.90;;;;;;5120308;28;19911;-51
2021/01/13 03:36:03;;;;;;;;;;;7.00;99.90;;;;;;5067611;28;19904;-51
2021/01/13 03:38:29;;;;;;;;;;;7.00;99.90;;;;;;5121060;28;19914;-50
2021/01/13 03:41:04;;;;;;;;;;;7.00;99.90;;;;;;5119828;28;19920;-51
2021/01/13 03:43:37;;;;;;;;;;;6.90;99.90;;;;;;5119840;28;19912;-51
2021/01/13 03:46:04;;;;;;;;;;;7.00;99.90;;;;;;5119670;28;20363;-51
2021/01/13 03:48:45;;;;;;;;;;;7.00;99.90;;;;;;5101697;28;19907;-51
2021/01/13 03:51:31;;;;;;;;;;;7.00;99.90;;;;;;5119855;28;19903;-51
2021/01/13 03:53:59;;;;;;;;;;;6.90;99.90;;;;;;5120325;28;19927;-50
2021/01/13 03:56:25;;;;;;;;;;;6.90;99.90;;;;;;5119473;28;19908;-51
2021/01/13 03:58:51;;;;;;;;;;;7.00;99.90;;;;;;5119953;28;19915;-51
2021/01/13 04:01:19;;;;;;;;;;;7.00;99.90;;;;;;5119262;28;20211;-50
2021/01/13 04:03:51;;;;;;;;;;;7.00;99.90;;;;;;5119795;28;19994;-51
2021/01/13 04:06:17;;;;;;;;;;;7.10;99.90;;;;;;5119605;28;19904;-50
2021/01/13 04:08:43;;;;;;;;;;;7.10;99.90;;;;;;5119708;28;20286;-49
2021/01/13 04:11:09;;;;;;;;;;;7.10;99.90;;;;;;5100671;28;20244;-50
2021/01/13 04:13:41;;;;;;;;;;;7.10;99.90;;;;;;5119264;28;19952;-49
2021/01/13 04:16:08;;;;;;;;;;;7.00;99.90;;;;;;5118651;28;20275;-49
2021/01/13 04:18:34;;;;;;;;;;;7.10;99.90;;;;;;5118687;28;20216;-50
2021/01/13 04:21:00;;;;;;;;;;;7.10;99.90;;;;;;5118899;28;19904;-50
2021/01/13 04:23:25;;;;;;;;;;;7.10;99.90;;;;;;5118588;28;19908;-51
2021/01/13 04:25:51;;;;;;;;;;;7.10;99.90;;;;;;5103651;28;19912;-52
2021/01/13 04:28:17;;;;;;;;;;;7.10;99.90;;;;;;5098434;28;19916;-51
2021/01/13 04:30:42;;;;;;;;;;;7.10;99.90;;;;;;5098078;28;19912;-50
2021/01/13 04:33:08;;;;;;;;;;;7.10;99.90;;;;;;5098546;28;19954;-51
2021/01/13 04:35:34;;;;;;;;;;;7.10;99.90;;;;;;5098091;28;20226;-52
2021/01/13 04:38:01;;;;;;;;;;;7.20;99.90;;;;;;5097987;28;20278;-52
2021/01/13 04:40:31;;;;;;;;;;;7.20;99.90;;;;;;5097952;28;20010;-50
2021/01/13 04:43:03;;;;;;;;;;;7.20;99.90;;;;;;5098383;28;19991;-50
2021/01/13 04:45:36;;;;;;;;;;;7.20;99.90;;;;;;5097756;28;19904;-51
2021/01/13 04:48:04;;;;;;;;;;;7.20;99.90;;;;;;5098032;28;19918;-51
2021/01/13 04:50:33;;;;;;;;;;;7.30;99.90;;;;;;5097745;28;19908;-51
2021/01/13 04:52:59;;;;;;;;;;;7.30;99.90;;;;;;5107209;28;19907;-52
2021/01/13 04:55:26;;;;;;;;;;;7.40;99.90;;;;;;5118952;28;20006;-50
2021/01/13 04:58:10;;;;;;;;;;;7.30;99.90;;;;;;5099486;28;19914;-51
2021/01/13 05:00:45;;;;;;;;;;;7.40;99.90;;;;;;5118489;28;19907;-51
2021/01/13 05:03:20;;;;;;;;;;;7.50;99.90;;;;;;5118101;28;19908;-51
2021/01/13 05:05:48;;;;;;;;;;;7.70;99.90;;;;;;5118237;28;19908;-51
2021/01/13 05:08:27;;;;;;;;;;;7.80;99.90;;;;;;5118817;28;19908;-51
2021/01/13 05:10:57;;;;;;;;;;;8.00;99.90;;;;;;5118747;28;19907;-50
2021/01/13 05:13:23;;;;;;;;;;;8.10;99.90;;;;;;5117769;28;19956;-50
2021/01/13 05:15:55;;;;;;;;;;;8.10;99.90;;;;;;5117998;28;19912;-51
2021/01/13 05:18:41;;;;;;;;;;;8.10;99.90;;;;;;5117795;28;19991;-51
2021/01/13 05:21:15;;;;;;;;;;;8.20;99.90;;;;;;5118045;28;19904;-50
2021/01/13 05:23:43;;;;;;;;;;;8.20;99.90;;;;;;5118948;28;19911;-50
2021/01/13 05:26:15;;;;;;;;;;;8.20;99.90;;;;;;5100018;28;19911;-50
2021/01/13 05:28:51;;;;;;;;;;;8.30;99.90;;;;;;5096531;28;19961;-50
2021/01/13 05:31:24;;;;;;;;;;;8.30;99.90;;;;;;5097151;28;20257;-50
2021/01/13 05:33:50;;;;;;;;;;;8.30;99.90;;;;;;5097346;28;19915;-50
2021/01/13 05:36:17;;;;;;;;;;;8.40;99.90;;;;;;5097071;28;19908;-50
2021/01/13 05:38:45;;;;;;;;;;;8.30;99.90;;;;;;5098328;28;20268;-50
2021/01/13 05:41:14;;;;;;;;;;;8.40;99.90;;;;;;5096666;28;19961;-51
2021/01/13 05:43:46;;;;;;;;;;;8.40;99.90;;;;;;5097273;28;19947;-51
2021/01/13 05:46:13;;;;;;;;;;;8.40;99.90;;;;;;5096583;28;19942;-51
2021/01/13 05:48:41;;;;;;;;;;;8.50;99.90;;;;;;5097174;28;19916;-51
2021/01/13 05:51:07;;;;;;;;;;;8.50;99.90;;;;;;5096589;28;19915;-50
2021/01/13 05:53:33;;;;;;;;;;;8.50;99.90;;;;;;5098323;28;19904;-51
2021/01/13 05:56:01;;;;;;;;;;;8.50;99.90;;;;;;5096446;28;19912;-51
2021/01/13 05:58:26;;;;;;;;;;;8.40;99.90;;;;;;5096441;28;19908;-51
2021/01/13 06:00:53;;;;;;;;;;;8.40;99.90;;;;;;5096512;28;20058;-50
2021/01/13 06:03:23;;;;;;;;;;;8.40;99.90;;;;;;5096443;28;19908;-50
2021/01/13 06:05:53;;;;;;;;;;;8.40;99.90;;;;;;5096127;28;19912;-51
2021/01/13 06:08:23;;;;;;;;;;;8.50;99.90;;;;;;5097530;28;19912;-50
2021/01/13 06:10:49;;;;;;;;;;;8.40;99.90;;;;;;5096064;28;19953;-50
2021/01/13 06:13:17;;;;;;;;;;;8.50;99.90;;;;;;5078358;28;19930;-51
2021/01/13 06:15:43;;;;;;;;;;;8.50;99.90;;;;;;5096315;28;19916;-50
2021/01/13 06:18:12;;;;;;;;;;;8.50;99.90;;;;;;5096454;28;19919;-50
2021/01/13 06:20:38;;;;;;;;;;;8.50;99.90;;;;;;5096285;28;20316;-50
2021/01/13 06:23:07;;;;;;;;;;;8.50;99.90;;;;;;5097360;28;19916;-49
2021/01/13 06:25:32;;;;;;;;;;;8.50;99.90;;;;;;5096025;28;19916;-50
2021/01/13 06:27:58;;;;;;;;;;;8.50;99.90;;;;;;5096116;28;19931;-50
2021/01/13 06:30:27;;;;;;;;;;;8.60;99.90;;;;;;5095589;28;20261;-51
2021/01/13 06:32:58;;;;;;;;;;;8.60;99.90;;;;;;5096074;28;19982;-50
2021/01/13 06:35:32;;;;;;;;;;;8.60;99.90;;;;;;5095845;28;19908;-50
2021/01/13 06:37:59;;;;;;;;;;;8.60;99.90;;;;;;5096615;28;19949;-52
2021/01/13 06:40:24;;;;;;;;;;;8.60;99.90;;;;;;5095658;28;20236;-50
2021/01/13 06:42:50;;;;;;;;;;;8.70;99.90;;;;;;5096272;28;19908;-50
2021/01/13 06:45:30;;;;;;;;;;;8.70;99.90;;;;;;5096046;28;19908;-50
2021/01/13 06:47:56;;;;;;;;;;;8.70;99.90;;;;;;5096043;28;19912;-50
2021/01/13 06:50:34;;;;;;;;;;;8.70;99.90;;;;;;5095723;28;19961;-51
2021/01/13 06:52:59;;;;;;;;;;;8.70;99.90;;;;;;5096194;28;20234;-51
2021/01/13 06:55:32;;;;;;;;;;;8.80;99.90;;;;;;5077910;28;19908;-51
2021/01/13 06:58:08;;;;;;;;;;;8.80;99.90;;;;;;5095914;28;19935;-51
2021/01/13 07:00:33;;;;;;;;;;;8.80;99.90;;;;;;5096081;28;19908;-51
2021/01/13 07:03:17;;;;;;;;;;;8.80;99.90;;;;;;5095903;28;19908;-50
2021/01/13 07:05:43;;;;;;;;;;;8.80;99.90;;;;;;5096265;28;19908;-50
2021/01/13 07:08:09;;;;;;;;;;;8.90;99.90;;;;;;5095707;28;20261;-51
2021/01/13 07:10:36;;;;;;;;;;;8.90;99.90;;;;;;5095879;28;19912;-50
2021/01/13 07:13:02;;;;;;;;;;;8.90;99.90;;;;;;5095550;28;20124;-51
2021/01/13 07:15:29;;;;;;;;;;;9.00;99.90;;;;;;5096152;28;20360;-51
2021/01/13 07:17:55;;;;;;;;;;;8.90;99.90;;;;;;5095760;28;19904;-51
2021/01/13 07:20:20;;;;;;;;;;;8.90;99.90;;;;;;5096020;28;19961;-51
2021/01/13 07:22:46;;;;;;;;;;;9.00;99.90;;;;;;5096644;28;19912;-51
2021/01/13 07:25:12;;;;;;;;;;;9.10;99.90;;;;;;5106343;28;19911;-50
2021/01/13 07:27:39;;;;;;;;;;;9.00;99.90;;;;;;5116019;28;20310;-50
2021/01/13 07:30:07;;;;;;;;;;;9.00;99.90;;;;;;5115748;28;19916;-51
2021/01/13 07:32:36;;;;;;;;;;;9.00;99.90;;;;;;5115839;28;19904;-50
2021/01/13 07:35:06;;;;;;;;;;;9.00;99.90;;;;;;5115634;28;20379;-51
2021/01/13 07:37:38;;;;;;;;;;;9.00;99.90;;;;;;5116496;28;19903;-51
2021/01/13 07:40:09;;;;;;;;;;;9.00;99.90;;;;;;5116784;28;19915;-50
2021/01/13 07:42:36;;;;;;;;;;;9.00;99.90;;;;;;5115963;28;20217;-52
2021/01/13 07:45:05;;;;;;;;;;;9.00;99.90;;;;;;5115689;28;20274;-51
2021/01/13 07:47:51;;;;;;;;;;;9.10;99.90;;;;;;5115697;28;19977;-51
2021/01/13 07:50:17;;;;;;;;;;;9.10;99.90;;;;;;5115082;28;19908;-50
2021/01/13 07:52:44;;;;;;;;;;;9.10;99.90;;;;;;5119188;28;19912;-50
2021/01/13 07:55:19;;;;;;;;;;;9.10;99.90;;;;;;5120446;28;19930;-51
2021/01/13 07:57:48;;;;;;;;;;;9.10;99.90;;;;;;5119813;28;19912;-50
2021/01/13 08:00:36;;;;;;;;;;;9.10;99.90;;;;;;5119454;28;19903;-50
2021/01/13 08:03:02;;;;;;;;;;;9.10;99.90;;;;;;5119790;28;19904;-51
2021/01/13 08:05:33;;;;;;;;;;;9.10;99.90;;;;;;5118922;28;19990;-51
2021/01/13 08:08:09;;;;;;;;;;;9.20;99.90;;;;;;5120431;28;20294;-52
2021/01/13 08:10:39;;;;;;;;;;;9.20;99.90;;;;;;5119277;28;19910;-50
2021/01/13 08:13:22;;;;;;;;;;;9.20;99.90;;;;;;5119211;28;19908;-50
2021/01/13 08:16:03;;;;;;;;;;;9.20;99.90;;;;;;5118579;28;19908;-50
2021/01/13 08:18:49;;;;;;;;;;;9.30;99.90;;;;;;5118697;28;20230;-50
2021/01/13 08:21:28;;;;;;;;;;;9.30;99.90;;;;;;5118924;28;19932;-50
2021/01/13 08:24:06;;;;;;;;;;;9.30;99.90;;;;;;5119706;28;19912;-51
2021/01/13 08:26:33;;;;;;;;;;;9.30;99.90;;;;;;5098279;28;20153;-50
2021/01/13 08:29:01;;;;;;;;;;;9.30;99.90;;;;;;5098330;28;19908;-50
2021/01/13 08:31:27;;;;;;;;;;;9.30;99.90;;;;;;5098292;28;19990;-50
2021/01/13 08:34:06;;;;;;;;;;;9.30;99.90;;;;;;5098254;28;19907;-50
2021/01/13 08:36:32;;;;;;;;;;;9.30;99.90;;;;;;5098433;28;20037;-50
2021/01/13 08:39:23;;;;;;;;;;;9.30;99.90;;;;;;5098841;28;19957;-51
2021/01/13 08:41:49;;;;;;;;;;;9.30;99.90;;;;;;5094933;28;19916;-50
2021/01/13 08:44:16;;;;;;;;;;;9.40;99.90;;;;;;5098103;28;20066;-51
2021/01/13 08:46:43;;;;;;;;;;;9.40;99.90;;;;;;5097656;28;20284;-50
2021/01/13 08:49:09;;;;;;;;;;;9.40;99.90;;;;;;5097706;28;20291;-51
2021/01/13 08:51:35;;;;;;;;;;;9.40;99.90;;;;;;5098106;28;19915;-50
2021/01/13 08:54:19;;;;;;;;;;;9.40;99.90;;;;;;5113040;28;19908;-51
2021/01/13 08:57:07;;;;;;;;;;;9.40;99.90;;;;;;5118022;28;19914;-50
2021/01/13 08:59:33;;;;;;;;;;;9.50;99.90;;;;;;5117911;28;19918;-50
2021/01/13 09:02:01;;;;;;;;;;;9.50;99.90;;;;;;5117853;28;19904;-52
2021/01/13 09:04:38;;;;;;;;;;;9.50;99.90;;;;;;5116514;28;19907;-51
2021/01/13 09:07:04;;;;;;;;;;;9.60;99.90;;;;;;5118863;28;19948;-51
2021/01/13 09:09:32;;;;;;;;;;;9.60;99.90;;;;;;5115751;28;20538;-51
2021/01/13 09:11:58;;;;;;;;;;;9.60;99.90;;;;;;5117947;28;19907;-51
2021/01/13 09:14:24;;;;;;;;;;;9.60;99.90;;;;;;5117619;28;19918;-51
2021/01/13 09:16:53;;;;;;;;;;;9.60;99.90;;;;;;5117649;28;19946;-51
2021/01/13 09:19:34;;;;;;;;;;;9.60;99.90;;;;;;5117670;28;19993;-51
2021/01/13 09:22:09;;;;;;;;;;;9.60;99.90;;;;;;5117993;28;19904;-50
2021/01/13 09:24:39;;;;;;;;;;;9.60;99.90;;;;;;5112833;28;19908;-51
2021/01/13 09:27:06;;;;;;;;;;;9.80;99.90;;;;;;5097365;28;19908;-50
2021/01/13 09:29:50;;;;;;;;;;;9.80;99.90;;;;;;5096850;28;19965;-52
2021/01/13 09:32:16;;;;;;;;;;;9.80;99.90;;;;;;5096935;28;19915;-51
2021/01/13 09:34:42;;;;;;;;;;;9.70;99.90;;;;;;5096827;28;19942;-51
2021/01/13 09:37:07;;;;;;;;;;;9.70;99.90;;;;;;5097511;28;19950;-51
2021/01/13 09:39:37;;;;;;;;;;;9.70;99.90;;;;;;5091012;28;20265;-51
2021/01/13 09:42:04;;;;;;;;;;;9.70;99.90;;;;;;5056545;28;19929;-50
2021/01/13 09:44:30;;;;;;;;;;;9.70;99.90;;;;;;5056224;28;19916;-50
2021/01/13 09:46:56;;;;;;;;;;;9.80;99.90;;;;;;5056875;28;20372;-52
2021/01/13 09:49:21;;;;;;;;;;;9.80;99.90;;;;;;5056624;28;20011;-50
2021/01/13 09:51:47;;;;;;;;;;;9.80;99.90;;;;;;5056702;28;19908;-51
2021/01/13 09:54:14;;;;;;;;;;;9.90;99.90;;;;;;5065511;28;19939;-51
2021/01/13 09:56:39;;;;;;;;;;;9.90;99.90;;;;;;5076168;28;20311;-50
2021/01/13 09:59:06;;;;;;;;;;;9.90;99.90;;;;;;5075814;28;19999;-51
2021/01/13 10:01:33;;;;;;;;;;;9.90;99.90;;;;;;5073969;28;19970;-51
2021/01/13 10:04:02;;;;;;;;;;;10.00;99.90;;;;;;5073991;28;19939;-50
2021/01/13 10:06:29;;;;;;;;;;;10.00;99.90;;;;;;5076658;28;19980;-52
2021/01/13 10:08:56;;;;;;;;;;;10.00;99.90;;;;;;5077201;28;19960;-50
2021/01/13 10:11:24;;;;;;;;;;;10.00;99.90;;;;;;5076722;28;19912;-50
2021/01/13 10:13:57;;;;;;;;;;;9.90;99.90;;;;;;5076263;28;19916;-50
2021/01/13 10:16:23;;;;;;;;;;;9.90;99.90;;;;;;5075737;28;19915;-51
2021/01/13 10:18:53;;;;;;;;;;;9.90;99.90;;;;;;5075814;28;20429;-50
2021/01/13 10:21:19;;;;;;;;;;;9.90;99.90;;;;;;5075699;28;19909;-50
2021/01/13 10:23:45;;;;;;;;;;;10.00;99.90;;;;;;5077156;28;19904;-50
2021/01/13 10:26:11;;;;;;;;;;;10.00;99.90;;;;;;5075913;28;19926;-51
2021/01/13 10:28:36;;;;;;;;;;;10.00;99.90;;;;;;5074392;28;20579;-51
2021/01/13 10:31:03;;;;;;;;;;;10.00;99.90;;;;;;5075521;28;19912;-50
2021/01/13 10:33:48;;;;;;;;;;;10.00;99.90;;;;;;5075358;28;20203;-50
2021/01/13 10:36:25;;;;;;;;;;;10.00;99.90;;;;;;5076111;28;19909;-50
2021/01/13 10:38:51;;;;;;;;;;;9.90;99.90;;;;;;5087622;28;19911;-50
2021/01/13 10:41:27;;;;;;;;;;;10.00;99.90;;;;;;5111663;28;19915;-50
2021/01/13 10:43:56;;;;;;;;;;;10.00;99.90;;;;;;5116239;28;20238;-51
2021/01/13 10:46:21;;;;;;;;;;;10.10;99.90;;;;;;5116643;28;19929;-51
2021/01/13 10:48:48;;;;;;;;;;;10.20;99.90;;;;;;5116280;28;20424;-51
2021/01/13 10:51:15;;;;;;;;;;;10.20;99.90;;;;;;5116663;28;19908;-51
2021/01/13 10:53:44;;;;;;;;;;;10.20;99.90;;;;;;5098861;28;19904;-51
2021/01/13 10:56:15;;;;;;;;;;;10.10;99.90;;;;;;5116397;28;20302;-51
2021/01/13 10:58:43;;;;;;;;;;;10.10;99.90;;;;;;5115997;28;19908;-51
2021/01/13 11:01:09;;;;;;;;;;;10.10;99.90;;;;;;5116062;28;19903;-50
2021/01/13 11:03:34;;;;;;;;;;;10.10;99.90;;;;;;5115678;28;19956;-51
2021/01/13 11:06:00;;;;;;;;;;;10.20;99.90;;;;;;5115899;28;20267;-51
2021/01/13 11:08:28;;;;;;;;;;;10.20;99.90;;;;;;5117008;28;20337;-51
2021/01/13 11:11:05;;;;;;;;;;;10.10;99.90;;;;;;5115699;28;20349;-50
2021/01/13 11:13:31;;;;;;;;;;;10.10;99.90;;;;;;5092678;28;19939;-52
2021/01/13 11:15:56;;;;;;;;;;;10.20;99.90;;;;;;5088251;28;20306;-52
2021/01/13 11:18:22;;;;;;;;;;;10.20;99.90;;;;;;5094612;28;19952;-50
2021/01/13 11:20:49;;;;;;;;;;;10.20;99.90;;;;;;5092338;28;20551;-51
2021/01/13 11:23:14;;;;;;;;;;;10.30;99.90;;;;;;5093046;28;20006;-50
2021/01/13 11:25:40;;;;;;;;;;;10.30;99.90;;;;;;5088969;28;19970;-51
2021/01/13 11:28:07;;;;;;;;;;;10.30;99.90;;;;;;5089534;28;20018;-52
2021/01/13 11:30:36;;;;;;;;;;;10.30;99.90;;;;;;5096348;28;19998;-52
2021/01/13 11:33:03;;;;;;;;;;;10.30;99.90;;;;;;5094673;28;20323;-51
2021/01/13 11:35:30;;;;;;;;;;;10.30;99.90;;;;;;5093028;28;19994;-51
2021/01/13 11:38:14;;;;;;;;;;;10.30;99.90;;;;;;5088475;28;19943;-52
2021/01/13 11:41:00;;;;;;;;;;;10.30;99.90;;;;;;5097141;28;20372;-52
2021/01/13 11:43:44;;;;;;;;;;;10.30;99.90;;;;;;5098745;28;19911;-51
2021/01/13 11:46:13;;;;;;;;;;;10.40;99.90;;;;;;5098699;28;19904;-51
2021/01/13 11:48:54;;;;;;;;;;;10.40;99.90;;;;;;5098837;28;19912;-51
2021/01/13 11:51:21;;;;;;;;;;;10.40;99.90;;;;;;5099390;28;20210;-51
2021/01/13 11:53:47;;;;;;;;;;;10.50;99.90;;;;;;5098566;28;19908;-52
2021/01/13 11:56:13;;;;;;;;;;;10.50;99.90;;;;;;5102363;28;19961;-50
2021/01/13 11:58:44;;;;;;;;;;;10.50;99.90;;;;;;5109925;28;19969;-51
2021/01/13 12:01:10;;;;;;;;;;;10.50;99.90;;;;;;5108876;28;20195;-50
2021/01/13 12:03:36;;;;;;;;;;;10.40;99.90;;;;;;5107577;28;19961;-50
2021/01/13 12:06:08;;;;;;;;;;;10.40;99.90;;;;;;5106421;28;19990;-51
2021/01/13 12:08:34;;;;;;;;;;;10.40;99.90;;;;;;5106772;28;19972;-52
2021/01/13 12:10:59;;;;;;;;;;;10.50;99.90;;;;;;5107619;28;20365;-52
2021/01/13 12:13:28;;;;;;;;;;;10.50;99.90;;;;;;5108794;28;21017;-51
2021/01/13 12:15:58;;;;;;;;;;;10.50;99.90;;;;;;5106764;28;19922;-51
2021/01/13 12:18:25;;;;;;;;;;;10.50;99.90;;;;;;5106582;28;19903;-51
2021/01/13 12:20:51;;;;;;;;;;;10.40;99.90;;;;;;5105945;28;19911;-51
2021/01/13 12:23:17;;;;;;;;;;;10.40;99.90;;;;;;5107418;28;20643;-52
2021/01/13 12:25:43;;;;;;;;;;;10.40;99.90;;;;;;5107836;28;19954;-51
2021/01/13 12:28:08;;;;;;;;;;;10.40;99.90;;;;;;5118581;28;19907;-51
2021/01/13 12:30:34;;;;;;;;;;;10.40;99.90;;;;;;5118598;28;19919;-51
2021/01/13 12:33:00;;;;;;;;;;;10.40;99.90;;;;;;5118530;28;19911;-51
2021/01/13 12:35:29;;;;;;;;;;;10.40;99.90;;;;;;5118337;28;19918;-51
2021/01/13 12:37:55;;;;;;;;;;;10.30;99.90;;;;;;5119185;28;19904;-51
2021/01/13 12:40:34;;;;;;;;;;;10.30;99.90;;;;;;5119094;28;20006;-51
2021/01/13 12:43:12;;;;;;;;;;;10.30;99.90;;;;;;5118531;28;19911;-51
2021/01/13 12:45:38;;;;;;;;;;;10.30;99.90;;;;;;5118091;28;19943;-50
2021/01/13 12:48:04;;;;;;;;;;;10.30;99.90;;;;;;5118363;28;19970;-51
2021/01/13 12:50:29;;;;;;;;;;;10.30;99.90;;;;;;5117856;28;20585;-51
2021/01/13 12:52:55;;;;;;;;;;;10.30;99.90;;;;;;5117880;28;20260;-50
2021/01/13 12:55:20;;;;;;;;;;;10.40;99.90;;;;;;5118639;28;19919;-50
2021/01/13 12:57:46;;;;;;;;;;;10.40;99.90;;;;;;5099682;28;19938;-52
2021/01/13 13:00:12;;;;;;;;;;;10.50;99.90;;;;;;5098599;28;20229;-51
2021/01/13 13:02:38;;;;;;;;;;;10.50;99.90;;;;;;5117607;28;19914;-50
2021/01/13 13:05:04;;;;;;;;;;;10.50;99.90;;;;;;5117596;28;19967;-51
2021/01/13 13:07:32;;;;;;;;;;;10.50;99.90;;;;;;5118667;28;19927;-51
2021/01/13 13:09:57;;;;;;;;;;;10.50;99.90;;;;;;5117452;28;19930;-52
2021/01/13 13:12:23;;;;;;;;;;;10.60;99.90;;;;;;5117999;28;20306;-52
2021/01/13 13:14:49;;;;;;;;;;;10.50;99.90;;;;;;5117823;28;19923;-52
2021/01/13 13:17:15;;;;;;;;;;;10.50;99.90;;;;;;5116505;28;19927;-51
2021/01/13 13:19:40;;;;;;;;;;;10.40;99.90;;;;;;5117212;28;20230;-52
2021/01/13 13:22:06;;;;;;;;;;;10.50;99.90;;;;;;5117358;28;19908;-50
2021/01/13 13:24:31;;;;;;;;;;;10.50;99.90;;;;;;5114212;28;19939;-51
2021/01/13 13:26:57;;;;;;;;;;;10.50;99.90;;;;;;5097088;28;19994;-52
2021/01/13 13:29:23;;;;;;;;;;;10.50;99.90;;;;;;5096590;28;19916;-52
2021/01/13 13:31:49;;;;;;;;;;;10.50;99.90;;;;;;5096703;28;19919;-52
2021/01/13 13:34:14;;;;;;;;;;;10.40;99.90;;;;;;5096833;28;20365;-54
2021/01/13 13:36:40;;;;;;;;;;;10.40;99.90;;;;;;5096980;28;19916;-54
2021/01/13 13:39:05;;;;;;;;;;;10.40;99.90;;;;;;5097459;28;19917;-53
2021/01/13 13:41:31;;;;;;;;;;;10.40;99.90;;;;;;5096595;28;19920;-56
2021/01/13 13:43:56;;;;;;;;;;;10.40;99.90;;;;;;5096241;28;19916;-54
2021/01/13 13:46:22;;;;;;;;;;;10.20;99.90;;;;;;5096779;28;19947;-55
2021/01/13 13:48:47;;;;;;;;;;;10.30;99.90;;;;;;5096225;28;19912;-54
2021/01/13 13:51:14;;;;;;;;;;;10.30;99.90;;;;;;5096176;28;19922;-54
2021/01/13 13:53:39;;;;;;;;;;;10.30;99.90;;;;;;5097141;28;19912;-55
2021/01/13 13:56:05;;;;;;;;;;;10.30;99.90;;;;;;5096458;28;19915;-53
2021/01/13 13:58:31;;;;;;;;;;;10.30;99.90;;;;;;5095955;28;19919;-52
2021/01/13 14:00:57;;;;;;;;;;;10.20;99.90;;;;;;5095892;28;20523;-53
2021/01/13 14:03:23;;;;;;;;;;;10.10;99.90;;;;;;5102675;28;20286;-53
2021/01/13 14:05:49;;;;;;;;;;;10.10;99.90;;;;;;5098193;28;19904;-54
2021/01/13 14:08:14;;;;;;;;;;;10.10;99.90;;;;;;5117602;28;19908;-53
2021/01/13 14:10:40;;;;;;;;;;;10.20;99.90;;;;;;5116655;28;19912;-53
2021/01/13 14:13:05;;;;;;;;;;;10.20;99.90;;;;;;5116338;28;19946;-53
2021/01/13 14:15:31;;;;;;;;;;;10.20;99.90;;;;;;5116301;28;19915;-53
2021/01/13 14:17:57;;;;;;;;;;;10.20;99.90;;;;;;5116860;28;20317;-52
2021/01/13 14:20:22;;;;;;;;;;;10.20;99.90;;;;;;5097592;28;19965;-53
2021/01/13 14:22:48;;;;;;;;;;;10.10;99.90;;;;;;5116656;28;20253;-53
2021/01/13 14:25:13;;;;;;;;;;;10.10;99.90;;;;;;5106237;28;19920;-51
2021/01/13 14:27:39;;;;;;;;;;;10.20;99.90;;;;;;5095907;28;19929;-51
2021/01/13 14:30:06;;;;;;;;;;;10.20;99.90;;;;;;5103303;28;19907;-52
2021/01/13 14:32:31;;;;;;;;;;;10.30;99.90;;;;;;5116348;28;19917;-55
2021/01/13 14:34:57;;;;;;;;;;;10.30;99.90;;;;;;5115900;28;19908;-55